Nearby METAR Reports

 

KCOE - Coeur D'alene, Idaho, USA
Distance from station: SSE 4mi, 7km
Updated: Sun, 22-Apr-2018 7:56am PDT
Clear
Clear
 Wind from varies
Wind: varies 5 mph , 7 km/h
Temperature: 39°F , 4°C
Wind Chill: 35°F , 2°C
Dew Point: 27°F , -3°C
Humidity: 61%
Barometer: 30.28 inHg , 1025.4 hPa
Clouds: Clear
Visibility: 10 miles , 16 km
2018/04/22 14:56 KCOE 221456Z AUTO VRB04KT 10SM CLR 04/M03 A3028 RMK AO2 SLP280 T00441028 51014
KSFF - Spokane/Felts, Washington, USA
Distance from station: WSW 24mi, 39km
Updated: Sun, 22-Apr-2018 7:53am PDT
Clear
Clear
 Wind from calm
Wind: Calm
Temperature: 41°F , 5°C
Dew Point: 27°F , -3°C
Humidity: 57%
Barometer: 30.29 inHg , 1025.7 hPa
Clouds: Clear
Visibility: 10 miles , 16 km
2018/04/22 14:53 KSFF 221453Z 00000KT 10SM CLR 05/M03 A3029 RMK AO2 SLP260 T00501028 53011
 
KDEW - Deer Park, Washington, USA
Distance from station: WNW 29mi, 47km
Updated: Sun, 22-Apr-2018 7:53am PDT
Clear
Clear
 Wind from S
Wind: S 3 mph , 6 km/h
Temperature: 37°F , 3°C
Dew Point: 28°F , -2°C
Humidity: 70%
Barometer: 30.28 inHg , 1025.4 hPa
Clouds: Clear
Visibility: 10 miles , 16 km
2018/04/22 14:53 KDEW 221453Z AUTO 18003KT 10SM CLR 03/M02 A3028 RMK AO2 SLP264 T00281022 51014
KSZT - Wall/Sandpoint, Idaho, USA
Distance from station: NNE 35mi, 56km
Updated: Fri, 20-Apr-2018 3:35pm PDT
NOT Current
Partly cloudy
Partly cloudy
 Wind from E
Wind: E 7 mph , 11 km/h
Temperature: 59°F , 15°C
Dew Point: 34°F , 1°C
Humidity: 39%
Barometer: 30.13 inHg , 1020.3 hPa
Clouds: Partly cloudy
Visibility: 10 miles , 16 km
Cloud details: Partly cloudy 6000 ft
2018/04/20 22:35 KSZT 202235Z AUTO 09006KT 10SM SCT060 15/01 A3013 RMK AO2
 
KGEG - Spokane/Metro, Washington, USA
Distance from station: WSW 35mi, 57km
Updated: Sun, 22-Apr-2018 7:53am PDT
Partly cloudy
Partly cloudy
 Wind from calm
Wind: Calm
Temperature: 37°F , 3°C
Dew Point: 28°F , -2°C
Humidity: 70%
Barometer: 30.27 inHg , 1025.1 hPa
Clouds: Partly cloudy
Visibility: 10 miles , 16 km
Cloud details: Few Clouds 16000 ft
Partly cloudy 24000 ft
2018/04/22 14:53 KGEG 221453Z 00000KT 10SM FEW160 SCT240 03/M02 A3027 RMK AO2 SLP261 T00281022 53011 $
KSKA - Fairchild Afb, Washington, USA
Distance from station: WSW 40mi, 65km
Updated: Sun, 22-Apr-2018 7:58am PDT
Clear
Clear
 Wind from calm
Wind: Calm
Temperature: 37°F , 3°C
Dew Point: 28°F , -2°C
Humidity: 70%
Barometer: 30.25 inHg , 1024.4 hPa
Clouds: Clear
Visibility: 10 miles , 16 km
2018/04/22 14:58 KSKA 221458Z 00000KT 10SM CLR 03/M02 A3025 RMK AO2A SLP260 T00291018 52010 $